Time;durP1;ratioP1;P1;durP2;ratioP2;P2;SDS_P1;SDS_P2;PMS_P1;PMS_P2;Temp;Humidity;BMP_temperature;BMP_pressure;BME280_temperature;BME280_humidity;BME280_pressure;Samples;Min_cycle;Max_cycle;Signal;HPM_P1;HPM_P2
2021/01/23 00:01:16;;;;;;;18.27;9.70;;;;;;;4.46;66.38;97389.72;5056719;28;20053;-76
2021/01/23 00:03:42;;;;;;;20.27;10.77;;;;;;;4.53;66.10;97393.03;5065830;28;20048;-76
2021/01/23 00:06:09;;;;;;;24.80;12.70;;;;;;;4.81;65.55;97394.16;5051282;28;20106;-76
2021/01/23 00:08:35;;;;;;;22.25;11.98;;;;;;;5.05;64.55;97387.59;5052621;28;20083;-76
2021/01/23 00:11:02;;;;;;;20.65;13.35;;;;;;;5.11;64.04;97385.72;5055402;28;20040;-75
2021/01/23 00:13:28;;;;;;;27.58;12.85;;;;;;;4.97;64.07;97392.97;5068756;28;20064;-78
2021/01/23 00:15:54;;;;;;;25.80;12.85;;;;;;;5.08;63.56;97382.38;5070350;28;20071;-76
2021/01/23 00:18:21;;;;;;;21.40;12.55;;;;;;;5.05;63.46;97380.69;5072629;28;20048;-81
2021/01/23 00:25:53;;;;;;;21.27;12.75;;;;;;;4.95;63.39;97380.91;5015354;27;20480;-76
2021/01/23 00:28:19;;;;;;;26.88;13.48;;;;;;;4.95;63.44;97379.19;5068508;28;20051;-75
2021/01/23 00:30:45;;;;;;;27.50;13.95;;;;;;;4.96;63.40;97380.03;5025100;28;20068;-76
2021/01/23 00:33:12;;;;;;;25.88;13.00;;;;;;;5.00;63.25;97389.44;5036093;28;20049;-75
2021/01/23 00:35:38;;;;;;;21.27;14.05;;;;;;;4.77;63.82;97383.03;5019428;28;20068;-76
2021/01/23 00:38:05;;;;;;;30.60;15.07;;;;;;;4.55;64.94;97380.94;5035463;28;20146;-74
2021/01/23 00:40:31;;;;;;;26.40;13.85;;;;;;;4.26;66.61;97382.38;5037799;28;20052;-76
2021/01/23 00:42:58;;;;;;;26.15;14.48;;;;;;;4.41;65.37;97381.22;5027930;28;20054;-77
2021/01/23 00:45:24;;;;;;;24.30;13.30;;;;;;;4.29;65.78;97387.47;5023051;28;20470;-75
2021/01/23 00:47:51;;;;;;;24.95;13.25;;;;;;;4.61;64.82;97385.97;5033056;28;20045;-75
2021/01/23 00:50:17;;;;;;;19.95;13.07;;;;;;;4.23;65.30;97381.56;5036917;28;20049;-76
2021/01/23 00:52:43;;;;;;;20.33;13.05;;;;;;;4.15;66.23;97383.44;5031515;28;20065;-75
2021/01/23 00:55:10;;;;;;;24.17;12.23;;;;;;;3.57;68.03;97386.22;5036604;28;20057;-75
2021/01/23 00:57:37;;;;;;;21.02;12.25;;;;;;;3.44;69.03;97378.69;5033597;28;20052;-75
2021/01/23 01:00:06;;;;;;;18.42;11.75;;;;;;;3.82;68.49;97380.63;5046654;28;20129;-75
2021/01/23 01:02:33;;;;;;;21.60;12.02;;;;;;;3.50;69.38;97377.75;5020938;28;20130;-75
2021/01/23 01:05:00;;;;;;;18.17;11.35;;;;;;;3.81;68.82;97373.75;5037272;28;20046;-75
2021/01/23 01:07:26;;;;;;;15.88;9.52;;;;;;;3.86;68.86;97378.81;5032136;28;20152;-74
2021/01/23 01:09:53;;;;;;;16.77;9.13;;;;;;;3.82;69.16;97372.88;5034687;28;20041;-76
2021/01/23 01:12:19;;;;;;;18.45;9.38;;;;;;;3.84;69.03;97372.81;5017930;28;20041;-76
2021/01/23 01:14:46;;;;;;;17.35;8.35;;;;;;;3.95;68.47;97376.06;5030452;28;20109;-76
2021/01/23 01:17:13;;;;;;;14.32;8.70;;;;;;;4.18;67.38;97385.97;5034579;28;20500;-76
2021/01/23 01:19:40;;;;;;;14.00;8.07;;;;;;;4.41;66.61;97376.06;5026907;28;20061;-75
2021/01/23 01:22:06;;;;;;;11.25;7.07;;;;;;;4.02;67.84;97369.94;5036247;28;20049;-75
2021/01/23 01:24:32;;;;;;;16.50;7.97;;;;;;;4.50;65.96;97377.59;5026679;28;20045;-76
2021/01/23 01:26:59;;;;;;;16.08;7.20;;;;;;;3.87;67.29;97368.47;5028802;28;20064;-76
2021/01/23 01:29:25;;;;;;;11.82;6.85;;;;;;;4.38;66.25;97376.94;5011726;28;20057;-76
2021/01/23 01:31:52;;;;;;;21.35;6.88;;;;;;;4.45;65.95;97374.25;5026351;28;20060;-76
2021/01/23 01:34:18;;;;;;;13.65;5.70;;;;;;;4.12;67.76;97376.63;5034995;28;20064;-74
2021/01/23 01:36:44;;;;;;;13.63;5.75;;;;;;;3.96;67.78;97370.03;5019652;28;20169;-73
2021/01/23 01:39:11;;;;;;;11.73;6.97;;;;;;;3.77;69.23;97376.41;5001060;28;20061;-74
2021/01/23 01:41:38;;;;;;;14.95;7.63;;;;;;;3.85;69.66;97374.53;5018442;28;20041;-74
2021/01/23 01:44:06;;;;;;;16.00;8.75;;;;;;;3.87;69.66;97367.63;5014747;28;20053;-75
2021/01/23 01:46:36;;;;;;;19.58;8.80;;;;;;;3.90;68.61;97359.81;5019831;28;20511;-75
2021/01/23 01:49:05;;;;;;;12.50;9.00;;;;;;;3.89;69.38;97369.28;5002394;28;20388;-75
2021/01/23 01:51:32;;;;;;;16.77;9.38;;;;;;;4.05;69.82;97374.16;5018573;28;20048;-75
2021/01/23 01:53:59;;;;;;;15.88;8.88;;;;;;;4.04;69.67;97375.03;5008731;28;20404;-75
2021/01/23 01:56:26;;;;;;;17.05;9.88;;;;;;;4.11;68.90;97369.75;4993689;28;20050;-74
2021/01/23 01:58:52;;;;;;;16.90;9.35;;;;;;;4.05;69.96;97367.28;5016462;28;20073;-75
2021/01/23 02:01:19;;;;;;;34.08;9.40;;;;;;;4.07;69.38;97367.25;5011516;28;20460;-76
2021/01/23 02:03:55;;;;;;;15.65;10.25;;;;;;;4.01;70.05;97373.38;5019483;28;20141;-74
2021/01/23 02:06:41;;;;;;;12.95;9.43;;;;;;;4.43;68.31;97368.25;5016084;28;20061;-76
2021/01/23 02:09:32;;;;;;;13.60;9.18;;;;;;;4.07;69.62;97375.00;5033714;28;20061;-75
2021/01/23 02:12:09;;;;;;;14.07;8.02;;;;;;;4.23;69.01;97372.09;5011067;28;20053;-75
2021/01/23 02:14:51;;;;;;;15.73;7.63;;;;;;;4.32;68.69;97369.31;5012721;28;20099;-75
2021/01/23 02:17:22;;;;;;;14.52;7.00;;;;;;;3.73;70.85;97360.13;5020692;28;20535;-75
2021/01/23 02:20:24;;;;;;;12.25;6.60;;;;;;;4.28;68.98;97359.91;5019985;28;20045;-76
2021/01/23 02:23:13;;;;;;;10.13;6.32;;;;;;;4.05;69.52;97356.94;5018789;28;20075;-75
2021/01/23 02:26:03;;;;;;;12.73;6.10;;;;;;;4.13;68.60;97360.22;5014622;28;21289;-75
2021/01/23 02:29:00;;;;;;;11.38;5.40;;;;;;;4.20;68.99;97354.06;5018424;28;20045;-75
2021/01/23 02:31:29;;;;;;;11.27;7.35;;;;;;;4.14;69.28;97350.75;5010594;28;20049;-75
2021/01/23 02:33:59;;;;;;;5.65;4.45;;;;;;;3.94;69.97;97351.97;5003677;28;20058;-75
2021/01/23 02:36:27;;;;;;;7.40;5.35;;;;;;;4.11;70.17;97350.81;5010144;28;20156;-76
2021/01/23 02:38:55;;;;;;;8.20;5.30;;;;;;;4.02;69.94;97345.81;5022217;28;20133;-75
2021/01/23 02:41:21;;;;;;;11.68;7.40;;;;;;;3.94;70.91;97345.94;5016691;28;20566;-76
2021/01/23 02:43:47;;;;;;;14.00;8.35;;;;;;;4.12;70.75;97349.94;5017232;28;20440;-75
2021/01/23 02:46:16;;;;;;;18.23;10.05;;;;;;;4.00;71.06;97351.00;5013000;28;20216;-75
2021/01/23 02:48:46;;;;;;;17.98;10.35;;;;;;;3.63;71.73;97358.59;5018411;28;20062;-74
2021/01/23 02:51:25;;;;;;;20.58;12.07;;;;;;;3.95;71.43;97350.25;5010837;28;20054;-75
2021/01/23 02:53:55;;;;;;;21.45;12.07;;;;;;;4.14;70.87;97354.19;5008848;28;20411;-75
2021/01/23 02:56:24;;;;;;;20.55;13.00;;;;;;;4.02;70.10;97353.56;5018092;28;20129;-76
2021/01/23 02:59:00;;;;;;;16.98;12.55;;;;;;;4.04;70.29;97362.13;5008279;28;20064;-75
2021/01/23 03:01:30;;;;;;;17.80;11.98;;;;;;;4.38;69.61;97376.09;5015497;28;20120;-75
2021/01/23 03:03:58;;;;;;;23.90;11.43;;;;;;;4.86;67.71;97381.97;4995672;28;20447;-75
2021/01/23 03:06:30;;;;;;;17.13;12.33;;;;;;;4.66;68.20;97378.97;4997079;28;20046;-74
2021/01/23 03:08:57;;;;;;;19.40;12.30;;;;;;;4.65;68.38;97375.53;5001658;28;20277;-75
2021/01/23 03:11:24;;;;;;;18.73;12.98;;;;;;;4.85;67.46;97364.75;5020613;28;20041;-75
2021/01/23 03:13:50;;;;;;;29.95;13.23;;;;;;;4.33;68.86;97370.16;5015124;28;20065;-74
2021/01/23 03:16:16;;;;;;;20.55;11.45;;;;;;;4.20;68.47;97366.13;5022646;28;20053;-76
2021/01/23 03:18:42;;;;;;;16.30;12.32;;;;;;;4.58;67.78;97373.97;5016088;28;20049;-74
2021/01/23 03:21:09;;;;;;;15.30;10.57;;;;;;;4.67;67.41;97368.59;5020973;28;20049;-75
2021/01/23 03:23:35;;;;;;;11.45;8.63;;;;;;;4.52;67.11;97365.47;5007761;28;20045;-75
2021/01/23 03:26:02;;;;;;;10.48;7.68;;;;;;;4.67;67.21;97367.75;5018282;28;20046;-75
2021/01/23 03:28:29;;;;;;;12.10;8.18;;;;;;;4.69;66.32;97369.44;5013660;28;20399;-75
2021/01/23 03:30:56;;;;;;;12.05;7.30;;;;;;;4.42;66.88;97366.53;5024572;28;20046;-75
2021/01/23 03:33:22;;;;;;;9.57;7.03;;;;;;;4.74;65.70;97371.91;5016742;28;20048;-75
2021/01/23 03:35:48;;;;;;;8.68;6.55;;;;;;;4.76;65.67;97375.31;5020535;28;20067;-75
2021/01/23 03:38:15;;;;;;;10.35;6.70;;;;;;;4.57;65.80;97369.66;5008109;28;20076;-75
2021/01/23 03:40:41;;;;;;;7.78;5.95;;;;;;;4.19;67.03;97367.84;5015564;28;20080;-75
2021/01/23 03:43:08;;;;;;;11.63;5.50;;;;;;;4.35;66.46;97369.28;5022060;28;20049;-75
2021/01/23 03:45:34;;;;;;;9.27;5.82;;;;;;;4.20;67.10;97368.72;5014731;28;20139;-75
2021/01/23 03:48:00;;;;;;;6.25;4.63;;;;;;;4.31;66.94;97377.13;5016049;28;20060;-75
2021/01/23 03:50:28;;;;;;;12.20;4.97;;;;;;;4.06;67.70;97373.28;5007664;28;20056;-75
2021/01/23 03:52:54;;;;;;;4.25;3.58;;;;;;;3.79;68.30;97375.50;5022847;28;20039;-75
2021/01/23 03:55:20;;;;;;;5.03;4.13;;;;;;;3.82;68.43;97372.88;5015214;28;20064;-75
2021/01/23 03:57:47;;;;;;;6.18;3.92;;;;;;;3.84;68.27;97362.50;5019755;28;20045;-75
2021/01/23 04:00:14;;;;;;;4.88;3.75;;;;;;;4.07;67.68;97370.69;5018450;28;20137;-75
2021/01/23 04:02:40;;;;;;;6.18;3.92;;;;;;;4.01;68.32;97352.72;5011981;28;20045;-75
2021/01/23 04:05:07;;;;;;;5.43;3.40;;;;;;;4.22;67.13;97352.28;5008311;28;20037;-75
2021/01/23 04:07:35;;;;;;;6.05;3.50;;;;;;;3.82;68.20;97344.47;5017623;28;20053;-75
2021/01/23 04:10:04;;;;;;;5.57;4.60;;;;;;;4.07;67.45;97349.16;5025047;28;20042;-75
2021/01/23 04:12:32;;;;;;;5.03;4.53;;;;;;;3.47;70.05;97345.06;5019259;28;20476;-74
2021/01/23 04:14:58;;;;;;;6.95;4.95;;;;;;;3.76;69.02;97343.72;5013606;28;20145;-75
2021/01/23 04:17:24;;;;;;;5.82;4.68;;;;;;;3.71;69.83;97346.38;5013808;28;20439;-75
2021/01/23 04:19:51;;;;;;;7.13;5.20;;;;;;;3.91;68.71;97343.44;5008315;28;20062;-73
2021/01/23 04:22:17;;;;;;;8.05;4.80;;;;;;;3.81;68.80;97344.47;5005639;28;20380;-75
2021/01/23 04:24:43;;;;;;;5.93;4.50;;;;;;;3.98;68.33;97357.91;5008111;28;20057;-74
2021/01/23 04:27:10;;;;;;;7.28;4.75;;;;;;;3.90;67.94;97358.06;5017119;28;20125;-76
2021/01/23 04:29:39;;;;;;;6.78;5.57;;;;;;;3.55;69.32;97363.00;5013940;28;20153;-74
2021/01/23 04:32:06;;;;;;;9.55;6.35;;;;;;;3.30;70.03;97354.84;5008021;28;20141;-75
2021/01/23 04:34:32;;;;;;;9.10;6.05;;;;;;;3.37;70.98;97356.44;5000896;28;20522;-75
2021/01/23 04:36:59;;;;;;;11.35;6.50;;;;;;;3.54;70.03;97358.75;5014236;28;20045;-75
2021/01/23 04:39:25;;;;;;;12.43;7.60;;;;;;;3.39;70.93;97359.00;4984398;28;20053;-75
2021/01/23 04:41:51;;;;;;;9.05;6.57;;;;;;;3.42;70.43;97357.19;5002117;28;20052;-75
2021/01/23 04:44:17;;;;;;;10.75;7.57;;;;;;;3.65;70.45;97366.28;5014908;28;20037;-75
2021/01/23 04:46:44;;;;;;;14.15;7.57;;;;;;;3.23;71.01;97373.00;4996639;28;20042;-75
2021/01/23 04:49:11;;;;;;;11.35;7.72;;;;;;;3.71;70.36;97368.75;5019681;28;20068;-75
2021/01/23 04:51:39;;;;;;;13.82;8.40;;;;;;;3.73;70.03;97370.47;5010132;28;20046;-75
2021/01/23 04:54:05;;;;;;;16.13;8.27;;;;;;;3.48;70.73;97375.19;5000625;28;20535;-75
2021/01/23 04:56:31;;;;;;;16.25;10.85;;;;;;;3.77;70.45;97381.56;4995166;28;20139;-75
2021/01/23 04:58:58;;;;;;;17.42;10.02;;;;;;;3.76;70.08;97374.69;5009071;28;20046;-75
2021/01/23 05:01:24;;;;;;;17.63;10.55;;;;;;;3.55;71.04;97377.66;5008751;28;20041;-75
2021/01/23 05:03:54;;;;;;;16.45;10.75;;;;;;;3.66;71.42;97375.72;5000496;28;20062;-75
2021/01/23 05:06:20;;;;;;;19.00;11.60;;;;;;;3.84;70.69;97370.25;4995181;28;20062;-75
2021/01/23 05:08:47;;;;;;;16.38;11.85;;;;;;;4.03;70.14;97366.44;5016015;28;20124;-76
2021/01/23 05:11:13;;;;;;;21.80;11.55;;;;;;;3.84;70.10;97367.66;5015820;28;20052;-75
2021/01/23 05:13:39;;;;;;;19.00;11.68;;;;;;;3.89;70.09;97364.13;5006942;28;20060;-75
2021/01/23 05:16:26;;;;;;;14.95;10.75;;;;;;;3.87;70.46;97368.47;5005272;28;20054;-75
2021/01/23 05:18:57;;;;;;;15.27;9.98;;;;;;;3.81;70.81;97370.31;4995143;28;20122;-75
2021/01/23 05:21:23;;;;;;;17.30;9.88;;;;;;;4.12;69.63;97365.44;4983011;28;20526;-75
2021/01/23 05:24:08;;;;;;;16.35;9.63;;;;;;;4.11;69.92;97368.91;5012540;28;20056;-75
2021/01/23 05:26:36;;;;;;;14.93;9.55;;;;;;;4.11;69.57;97364.59;5001679;28;20124;-74
2021/01/23 05:29:14;;;;;;;14.63;8.65;;;;;;;3.70;70.21;97373.06;4998479;28;20054;-74
2021/01/23 05:31:41;;;;;;;15.10;8.55;;;;;;;4.09;68.73;97371.50;5023586;28;20067;-75
2021/01/23 05:34:28;;;;;;;15.65;9.05;;;;;;;4.00;69.47;97370.81;5000773;28;20100;-74
2021/01/23 05:36:56;;;;;;;14.27;8.65;;;;;;;3.99;69.04;97382.88;5020761;28;20052;-75
2021/01/23 05:39:49;;;;;;;15.82;8.55;;;;;;;4.41;67.92;97380.38;5019805;28;20156;-74
2021/01/23 05:42:17;;;;;;;13.93;9.55;;;;;;;4.56;66.93;97380.03;5020137;28;20053;-74
2021/01/23 05:45:06;;;;;;;14.35;9.10;;;;;;;4.25;67.85;97384.97;5006629;28;20042;-74
2021/01/23 05:47:33;;;;;;;17.08;8.93;;;;;;;4.22;67.98;97382.47;5020049;28;20077;-75
2021/01/23 05:49:59;;;;;;;14.45;7.65;;;;;;;3.76;69.61;97378.13;5020135;28;20045;-74
2021/01/23 05:52:27;;;;;;;22.15;9.18;;;;;;;4.26;68.15;97384.09;5018301;28;20049;-76
2021/01/23 05:54:54;;;;;;;14.70;8.93;;;;;;;4.21;67.93;97381.63;5016402;28;20049;-74
2021/01/23 05:57:21;;;;;;;11.93;7.53;;;;;;;4.17;67.54;97377.34;5018620;28;20081;-74
2021/01/23 05:59:49;;;;;;;15.20;8.90;;;;;;;4.55;67.25;97375.78;4998071;28;20115;-74
2021/01/23 06:02:17;;;;;;;13.50;7.50;;;;;;;4.82;65.87;97382.94;5021150;28;20076;-74
2021/01/23 06:04:48;;;;;;;13.85;8.18;;;;;;;4.83;65.46;97390.69;4998638;28;20091;-74
2021/01/23 06:07:40;;;;;;;12.88;8.00;;;;;;;4.43;66.25;97392.38;5023239;28;20841;-74
2021/01/23 06:10:21;;;;;;;13.40;7.78;;;;;;;4.74;65.72;97393.47;4993806;28;20054;-74
2021/01/23 06:12:49;;;;;;;15.32;7.38;;;;;;;4.23;67.08;97394.47;4999222;28;20125;-74
2021/01/23 06:15:38;;;;;;;15.48;7.65;;;;;;;4.56;66.33;97399.00;5005847;28;20367;-74
2021/01/23 06:18:07;;;;;;;16.50;8.80;;;;;;;3.84;68.56;97396.06;5008299;28;21515;-74
2021/01/23 06:20:39;;;;;;;14.00;8.77;;;;;;;3.69;69.43;97392.03;4993343;28;20049;-74
2021/01/23 06:23:06;;;;;;;;;;;;;;;3.86;69.56;97384.00;5005555;28;20148;-74
2021/01/23 06:26:02;;;;;;;14.93;9.00;;;;;;;3.62;70.36;97397.31;5015158;28;19921;-74
2021/01/23 06:28:31;;;;;;;13.52;8.50;;;;;;;3.62;71.19;97393.00;5015354;28;20160;-74
2021/01/23 06:30:57;;;;;;;20.35;8.73;;;;;;;3.89;69.99;97397.69;4998718;28;20049;-74
2021/01/23 06:33:26;;;;;;;18.55;9.50;;;;;;;3.69;70.08;97392.03;5017971;28;20054;-75
2021/01/23 06:36:01;;;;;;;17.83;9.65;;;;;;;3.77;69.82;97394.47;5000878;28;20065;-74
2021/01/23 06:38:29;;;;;;;17.92;9.50;;;;;;;4.07;68.83;97403.41;5016274;28;20049;-75
2021/01/23 06:40:56;;;;;;;17.67;9.10;;;;;;;4.00;69.24;97396.66;4999085;28;20152;-74
2021/01/23 06:43:22;;;;;;;17.13;9.63;;;;;;;3.74;69.55;97397.94;5002172;28;20519;-75
2021/01/23 06:45:48;;;;;;;13.93;8.40;;;;;;;3.57;69.95;97396.53;5015871;28;20041;-74
2021/01/23 06:48:15;;;;;;;15.63;8.52;;;;;;;3.94;69.30;97405.34;5015904;28;20045;-74
2021/01/23 06:50:43;;;;;;;13.25;8.30;;;;;;;3.70;69.72;97398.88;4995814;28;24486;-74
2021/01/23 06:53:18;;;;;;;17.63;7.63;;;;;;;3.57;70.58;97402.56;5020438;28;20054;-74
2021/01/23 06:55:52;;;;;;;15.00;7.65;;;;;;;3.95;69.62;97405.34;5002490;28;20541;-74
2021/01/23 06:58:22;;;;;;;17.27;7.82;;;;;;;3.85;68.71;97402.94;5020540;28;20056;-74
2021/01/23 07:00:52;;;;;;;15.05;7.03;;;;;;;3.74;69.66;97400.53;5002508;28;20057;-74
2021/01/23 07:03:18;;;;;;;11.75;6.82;;;;;;;3.56;69.72;97394.84;4998952;28;20067;-74
2021/01/23 07:05:49;;;;;;;9.75;5.40;;;;;;;3.55;69.98;97401.72;5022167;28;20088;-75
2021/01/23 07:08:32;;;;;;;11.30;6.00;;;;;;;3.52;69.98;97401.78;5018991;28;20054;-74
2021/01/23 07:11:10;;;;;;;13.60;6.45;;;;;;;3.38;69.96;97396.00;5004365;28;20067;-74
2021/01/23 07:13:39;;;;;;;10.70;4.93;;;;;;;3.62;69.61;97398.19;5017759;28;20049;-74
2021/01/23 07:16:05;;;;;;;11.07;5.68;;;;;;;3.35;70.01;97396.06;5022316;28;20053;-74
2021/01/23 07:18:32;;;;;;;12.90;5.38;;;;;;;3.51;68.72;97407.81;5014405;28;20395;-74
2021/01/23 07:21:01;;;;;;;10.02;5.05;;;;;;;3.71;68.89;97410.94;5015600;28;20133;-74
2021/01/23 07:23:27;;;;;;;16.00;5.05;;;;;;;3.71;69.17;97415.22;5007307;28;20408;-75
2021/01/23 07:25:58;;;;;;;12.65;6.15;;;;;;;3.80;68.71;97413.34;4999364;28;20132;-74
2021/01/23 07:28:25;;;;;;;10.77;5.18;;;;;;;3.84;67.83;97415.00;5008436;28;20056;-75
2021/01/23 07:30:52;;;;;;;11.50;4.95;;;;;;;3.69;68.75;97422.19;5020522;28;20041;-74
2021/01/23 07:33:31;;;;;;;13.05;5.65;;;;;;;3.36;69.31;97429.56;5016161;28;20099;-74
2021/01/23 07:35:58;;;;;;;11.35;5.97;;;;;;;3.51;69.55;97419.00;5016446;28;20045;-74
2021/01/23 07:38:25;;;;;;;11.88;6.20;;;;;;;3.64;68.79;97429.13;5014195;28;20049;-74
2021/01/23 07:40:55;;;;;;;12.00;5.88;;;;;;;3.43;69.64;97428.59;4995345;28;20500;-74
2021/01/23 07:43:23;;;;;;;15.48;6.70;;;;;;;3.66;69.28;97430.81;4992659;28;20053;-75
2021/01/23 07:45:54;;;;;;;13.32;6.63;;;;;;;3.65;69.27;97438.56;4996150;28;20058;-74
2021/01/23 07:48:20;;;;;;;13.65;6.45;;;;;;;3.60;69.56;97432.66;5010489;28;20063;-74
2021/01/23 07:50:46;;;;;;;11.13;6.68;;;;;;;3.75;68.93;97440.97;5018990;28;20049;-75
2021/01/23 07:53:19;;;;;;;14.77;6.63;;;;;;;3.78;68.86;97437.50;5007105;28;20411;-74
2021/01/23 07:55:47;;;;;;;14.80;7.20;;;;;;;3.89;68.53;97445.91;4983693;28;20050;-75
2021/01/23 07:58:14;;;;;;;13.52;7.28;;;;;;;4.03;67.86;97441.34;4998351;28;20069;-75
2021/01/23 08:00:41;;;;;;;15.48;7.85;;;;;;;3.98;68.37;97444.94;5010257;28;20531;-74
2021/01/23 08:03:08;;;;;;;13.15;7.05;;;;;;;3.66;69.24;97448.88;5001397;28;20128;-74
2021/01/23 08:05:49;;;;;;;12.07;6.80;;;;;;;3.56;69.77;97449.91;5004380;28;20053;-75
2021/01/23 08:08:37;;;;;;;12.15;5.95;;;;;;;4.16;68.25;97442.00;5022732;28;20529;-75
2021/01/23 08:11:05;;;;;;;12.93;6.00;;;;;;;4.46;67.18;97449.16;5019607;28;20461;-75
2021/01/23 08:13:34;;;;;;;8.23;5.07;;;;;;;4.20;67.17;97452.25;5016907;28;20053;-74
2021/01/23 08:16:14;;;;;;;10.85;5.38;;;;;;;4.28;67.35;97455.53;5007587;28;20045;-75
2021/01/23 08:18:42;;;;;;;13.93;5.88;;;;;;;4.65;66.40;97452.28;5015339;28;20057;-75
2021/01/23 08:21:19;;;;;;;12.18;5.88;;;;;;;5.18;64.78;97451.97;5017856;28;20048;-74
2021/01/23 08:23:46;;;;;;;10.07;5.35;;;;;;;5.08;64.63;97458.28;5019706;28;20049;-75
2021/01/23 08:26:13;;;;;;;8.30;4.30;;;;;;;5.09;64.60;97467.72;5014467;28;20124;-74
2021/01/23 08:28:43;;;;;;;8.93;4.80;;;;;;;5.16;64.07;97469.31;5021072;28;20049;-75
2021/01/23 08:31:20;;;;;;;8.95;4.40;;;;;;;5.27;63.38;97472.47;5013011;28;20431;-75
2021/01/23 08:33:57;;;;;;;11.77;4.53;;;;;;;5.19;63.32;97470.97;5018050;28;20050;-76
2021/01/23 08:36:28;;;;;;;9.27;4.10;;;;;;;5.31;63.42;97469.84;5014752;28;20160;-75
2021/01/23 08:39:06;;;;;;;11.65;3.88;;;;;;;5.28;63.15;97476.78;5000517;28;20038;-75
2021/01/23 08:41:33;;;;;;;7.80;3.25;;;;;;;5.16;63.66;97468.44;4986502;28;20446;-76
2021/01/23 08:44:00;;;;;;;8.82;3.83;;;;;;;5.58;62.49;97471.81;4998506;28;20061;-75
2021/01/23 08:46:26;;;;;;;7.95;3.25;;;;;;;5.60;61.99;97478.66;4997144;28;20056;-75
2021/01/23 08:48:54;;;;;;;7.13;3.15;;;;;;;5.52;62.12;97477.13;5015051;28;20054;-75
2021/01/23 08:51:20;;;;;;;12.05;3.70;;;;;;;5.38;62.33;97476.56;5020897;28;20057;-75
2021/01/23 08:53:47;;;;;;;11.07;4.03;;;;;;;5.57;62.83;97470.09;5006916;28;20049;-75
2021/01/23 08:56:15;;;;;;;9.98;4.18;;;;;;;5.55;63.09;97474.47;5021646;28;20124;-75
2021/01/23 08:58:42;;;;;;;8.25;4.20;;;;;;;6.11;61.66;97475.72;5024010;28;20132;-75
2021/01/23 09:01:09;;;;;;;13.32;4.60;;;;;;;6.22;61.62;97480.66;5021894;28;20057;-75
2021/01/23 09:03:35;;;;;;;9.30;4.53;;;;;;;5.82;62.18;97485.91;5024961;28;20041;-75
2021/01/23 09:06:02;;;;;;;10.05;5.15;;;;;;;6.35;61.80;97492.41;5020602;28;20573;-75
2021/01/23 09:08:29;;;;;;;6.90;3.83;;;;;;;6.56;61.08;97482.31;5023473;28;20049;-73
2021/01/23 09:10:55;;;;;;;14.48;5.00;;;;;;;7.01;59.28;97477.59;5026290;28;20049;-75
2021/01/23 09:13:22;;;;;;;11.80;4.18;;;;;;;6.95;59.83;97485.53;5018619;28;20100;-75
2021/01/23 09:15:48;;;;;;;6.82;4.40;;;;;;;6.98;58.82;97482.88;5025616;28;20041;-75
2021/01/23 09:18:15;;;;;;;8.30;4.07;;;;;;;7.03;59.08;97487.09;5019847;28;20423;-75
2021/01/23 09:20:42;;;;;;;9.25;3.97;;;;;;;6.91;59.21;97483.06;5005098;28;20522;-75
2021/01/23 09:23:09;;;;;;;8.05;3.70;;;;;;;7.51;57.70;97488.25;5003773;28;20064;-75
2021/01/23 09:25:35;;;;;;;10.38;3.58;;;;;;;6.76;59.65;97486.94;5021955;28;20052;-75
2021/01/23 09:28:02;;;;;;;6.80;3.25;;;;;;;6.38;60.91;97493.16;5020755;28;20488;-75
2021/01/23 09:30:28;;;;;;;7.32;3.65;;;;;;;6.89;59.89;97483.13;5020092;28;20081;-74
2021/01/23 09:32:55;;;;;;;8.38;3.67;;;;;;;7.22;58.41;97483.06;5019793;28;20103;-74
2021/01/23 09:35:22;;;;;;;6.50;4.13;;;;;;;7.08;58.82;97488.66;5003407;28;20026;-75
2021/01/23 09:37:48;;;;;;;8.75;4.28;;;;;;;6.91;59.26;97491.72;4983689;28;20132;-75
2021/01/23 09:40:15;;;;;;;8.15;4.20;;;;;;;6.65;60.18;97491.59;5018837;28;20045;-74
2021/01/23 09:42:41;;;;;;;7.50;4.65;;;;;;;6.71;59.56;97488.84;5016257;28;20499;-74
2021/01/23 09:45:08;;;;;;;9.75;4.97;;;;;;;6.61;60.21;97497.75;5022157;28;20095;-74
2021/01/23 09:47:35;;;;;;;11.13;5.65;;;;;;;6.76;59.98;97499.91;4999440;28;20077;-74
2021/01/23 09:50:02;;;;;;;10.60;5.03;;;;;;;6.50;60.99;97505.81;5005282;28;20045;-74
2021/01/23 09:52:29;;;;;;;11.13;5.47;;;;;;;6.33;61.56;97505.38;4994992;28;20061;-74
2021/01/23 09:54:56;;;;;;;9.60;5.22;;;;;;;6.61;60.77;97505.53;5018109;28;20046;-75
2021/01/23 09:57:22;;;;;;;11.45;6.38;;;;;;;6.06;62.53;97506.94;5015472;28;20111;-75
2021/01/23 09:59:49;;;;;;;14.30;7.47;;;;;;;6.12;63.07;97509.41;5021013;28;20395;-74
2021/01/23 10:02:16;;;;;;;21.15;8.07;;;;;;;6.20;62.18;97508.34;5005052;28;20080;-75
2021/01/23 10:04:43;;;;;;;15.13;8.45;;;;;;;5.89;63.57;97514.28;5016763;28;20041;-74
2021/01/23 10:07:09;;;;;;;21.92;8.82;;;;;;;6.09;62.86;97521.59;5024583;28;20048;-74
2021/01/23 10:09:36;;;;;;;18.90;9.20;;;;;;;6.38;62.07;97519.09;5016356;28;20108;-75
2021/01/23 10:12:03;;;;;;;18.88;8.73;;;;;;;6.30;62.44;97515.00;5026009;28;20111;-74
2021/01/23 10:14:29;;;;;;;15.32;9.52;;;;;;;6.56;61.67;97518.66;5016634;28;20046;-75
2021/01/23 10:16:55;;;;;;;19.13;9.02;;;;;;;6.59;60.66;97512.50;5024144;28;20408;-74
2021/01/23 10:19:24;;;;;;;17.73;9.45;;;;;;;6.14;61.97;97519.72;4989115;28;20548;-75
2021/01/23 10:21:50;;;;;;;22.33;10.05;;;;;;;5.75;63.72;97526.69;5020112;28;20270;-74
2021/01/23 10:24:17;;;;;;;20.83;9.88;;;;;;;5.98;62.66;97519.25;5019794;28;20148;-76
2021/01/23 10:26:44;;;;;;;18.60;10.52;;;;;;;6.11;62.39;97524.97;5018462;28;20053;-74
2021/01/23 10:29:14;;;;;;;23.05;10.80;;;;;;;6.37;62.22;97527.78;5010218;28;20038;-75
2021/01/23 10:31:40;;;;;;;26.85;12.88;;;;;;;6.26;62.54;97539.31;5008229;28;20056;-74
2021/01/23 10:34:07;;;;;;;25.80;14.15;;;;;;;6.00;63.65;97535.59;5017728;28;20072;-74
2021/01/23 10:36:33;;;;;;;28.40;13.80;;;;;;;5.47;66.50;97536.78;5015754;28;20060;-74
2021/01/23 10:38:59;;;;;;;28.02;13.50;;;;;;;6.39;63.57;97538.09;5023141;28;20057;-75
2021/01/23 10:41:26;;;;;;;28.50;14.02;;;;;;;6.25;63.56;97535.84;4995311;28;20045;-74
2021/01/23 10:43:52;;;;;;;22.83;13.65;;;;;;;6.35;63.37;97539.06;5015564;28;20373;-74
2021/01/23 10:46:19;;;;;;;24.40;12.70;;;;;;;6.27;63.09;97538.41;5015949;28;20052;-74
2021/01/23 10:48:45;;;;;;;20.45;11.98;;;;;;;5.94;64.40;97542.69;5021922;28;20049;-75
2021/01/23 10:51:14;;;;;;;22.35;11.25;;;;;;;6.34;63.14;97537.38;4999851;28;20057;-75
2021/01/23 10:53:40;;;;;;;21.13;11.27;;;;;;;5.97;64.30;97537.41;5021773;28;20500;-74
2021/01/23 10:56:07;;;;;;;20.50;11.77;;;;;;;6.32;62.71;97536.56;5014895;28;20052;-74
2021/01/23 10:58:33;;;;;;;14.57;9.07;;;;;;;6.32;62.72;97542.59;5017652;28;21423;-74
2021/01/23 11:01:00;;;;;;;13.35;7.90;;;;;;;5.82;64.27;97538.59;5014711;28;20625;-74
2021/01/23 11:03:28;;;;;;;12.98;7.15;;;;;;;6.24;62.79;97539.34;5019617;28;20091;-75
2021/01/23 11:05:56;;;;;;;11.63;6.85;;;;;;;6.16;62.97;97536.09;5014917;28;20129;-76
2021/01/23 11:08:23;;;;;;;9.93;6.10;;;;;;;6.22;61.49;97538.53;4995427;28;20041;-74
2021/01/23 11:10:49;;;;;;;8.93;5.05;;;;;;;5.92;62.27;97537.53;5016473;28;20463;-74
2021/01/23 11:13:19;;;;;;;7.65;3.63;;;;;;;5.65;62.56;97543.31;5006208;28;20037;-74
2021/01/23 11:15:45;;;;;;;5.10;2.30;;;;;;;5.64;62.26;97544.19;4995803;28;20100;-74
2021/01/23 11:18:12;;;;;;;7.03;2.85;;;;;;;5.22;62.84;97543.38;5009612;28;20053;-75
2021/01/23 11:20:38;;;;;;;5.15;1.98;;;;;;;5.37;63.12;97537.84;5019585;28;20068;-75
2021/01/23 11:23:05;;;;;;;4.65;1.85;;;;;;;5.66;62.63;97543.25;5008586;28;20056;-75
2021/01/23 11:25:31;;;;;;;4.68;2.08;;;;;;;6.04;61.36;97539.81;5016560;28;20137;-74
2021/01/23 11:27:58;;;;;;;4.22;1.40;;;;;;;5.91;62.57;97547.91;5015144;28;20484;-76
2021/01/23 11:30:25;;;;;;;3.63;1.63;;;;;;;5.94;61.49;97542.69;5018708;28;20075;-74
2021/01/23 11:32:52;;;;;;;4.65;1.73;;;;;;;5.71;62.71;97544.00;4998439;28;20045;-75
2021/01/23 11:35:20;;;;;;;5.40;2.33;;;;;;;6.05;61.79;97543.25;5005477;28;20130;-75
2021/01/23 11:37:48;;;;;;;3.22;1.58;;;;;;;5.90;62.27;97541.06;5016623;28;20064;-75
2021/01/23 11:40:14;;;;;;;3.53;1.20;;;;;;;5.80;62.63;97537.78;5019292;28;20052;-75
2021/01/23 11:42:42;;;;;;;2.63;1.13;;;;;;;5.41;63.59;97543.84;5013557;28;21111;-75
2021/01/23 11:45:09;;;;;;;5.35;1.30;;;;;;;5.31;63.51;97542.34;5005626;28;20053;-75
2021/01/23 11:47:39;;;;;;;3.65;1.45;;;;;;;5.91;62.06;97546.19;5015164;28;20499;-75